createdAt,value
2023-01-18T00:01:10.616Z,3.38
2023-01-18T00:06:42.189Z,3.01
2023-01-18T00:12:13.893Z,2.96
2023-01-18T00:17:45.617Z,2.9
2023-01-18T00:23:21.772Z,3.02
2023-01-18T00:28:53.779Z,2.39
2023-01-18T00:34:25.168Z,2.38
2023-01-18T00:39:57.538Z,2.04
2023-01-18T00:45:28.698Z,1.96
2023-01-18T00:51:00.377Z,2.11
2023-01-18T00:56:32.160Z,2.15
2023-01-18T01:02:04.197Z,2.55
2023-01-18T01:07:35.556Z,2.09
2023-01-18T01:13:07.241Z,1.99
2023-01-18T01:18:39.019Z,1.76
2023-01-18T01:24:15.373Z,1.88
2023-01-18T01:29:46.956Z,2.3
2023-01-18T01:35:18.662Z,2.02
2023-01-18T01:40:50.589Z,2.29
2023-01-18T01:46:22.092Z,2.08
2023-01-18T01:51:53.808Z,2.02
2023-01-18T01:57:25.544Z,2.0
2023-01-18T02:02:57.714Z,1.81
2023-01-18T02:08:28.984Z,1.61
2023-01-18T02:14:00.713Z,2.05
2023-01-18T02:19:32.641Z,2.14
2023-01-18T02:25:10.565Z,2.1
2023-01-18T02:30:42.587Z,1.73
2023-01-18T02:36:14.141Z,2.08
2023-01-18T02:41:45.747Z,2.04
2023-01-18T02:47:17.587Z,1.81
2023-01-18T02:52:49.440Z,2.07
2023-01-18T02:58:20.892Z,1.72
2023-01-18T03:03:52.712Z,1.92
2023-01-18T03:09:24.348Z,1.56
2023-01-18T03:14:56.245Z,1.84
2023-01-18T03:20:27.766Z,1.66
2023-01-18T03:26:03.936Z,1.61
2023-01-18T03:31:35.839Z,1.45
2023-01-18T03:37:07.408Z,1.77
2023-01-18T03:42:39.123Z,1.97
2023-01-18T03:48:10.811Z,1.82
2023-01-18T03:53:42.798Z,1.99
2023-01-18T03:59:14.790Z,1.83
2023-01-18T04:04:46.245Z,1.53
2023-01-18T04:10:18.138Z,1.44
2023-01-18T04:15:49.710Z,1.49
2023-01-18T04:21:21.185Z,1.35
2023-01-18T04:26:59.384Z,1.36
2023-01-18T04:32:31.045Z,1.23
2023-01-18T04:38:02.814Z,1.25
2023-01-18T04:43:34.760Z,1.16
2023-01-18T04:49:07.112Z,1.05
2023-01-18T04:54:37.972Z,1.19
2023-01-18T05:00:09.660Z,1.07
2023-01-18T05:05:41.700Z,1.02
2023-01-18T05:11:13.846Z,0.99
2023-01-18T05:16:44.830Z,1.02
2023-01-18T05:22:16.643Z,1.08
2023-01-18T05:27:52.876Z,0.99
2023-01-18T05:33:24.639Z,0.91
2023-01-18T05:38:56.343Z,0.91
2023-01-18T05:44:28.058Z,1.13
2023-01-18T05:49:59.864Z,1.24
2023-01-18T05:55:31.541Z,1.23
2023-01-18T06:01:03.353Z,1.26
2023-01-18T06:06:35.021Z,1.32
2023-01-18T06:12:06.849Z,1.38
2023-01-18T06:17:38.761Z,1.3
2023-01-18T06:23:10.165Z,1.19
2023-01-18T06:28:46.183Z,1.13
2023-01-18T06:34:17.980Z,1.15
2023-01-18T06:39:49.654Z,1.27
2023-01-18T06:45:21.620Z,1.35
2023-01-18T06:50:53.075Z,1.29
2023-01-18T06:56:24.825Z,1.44
2023-01-18T07:01:57.237Z,1.15
2023-01-18T07:07:28.250Z,0.96
2023-01-18T07:13:00.278Z,0.76
2023-01-18T07:18:31.662Z,0.83
2023-01-18T07:24:03.499Z,0.85
2023-01-18T07:29:41.688Z,0.67
2023-01-18T07:35:13.328Z,0.97
2023-01-18T07:40:44.994Z,0.7
2023-01-18T07:46:16.984Z,0.49
2023-01-18T07:51:48.614Z,0.59
2023-01-18T07:57:20.321Z,0.56
2023-01-18T08:02:51.932Z,0.62
2023-01-18T08:08:23.597Z,0.74
2023-01-18T08:13:55.951Z,0.74
2023-01-18T08:19:27.637Z,0.83
2023-01-18T08:24:59.384Z,1.0
2023-01-18T08:30:35.363Z,0.89
2023-01-18T08:36:07.120Z,1.08
2023-01-18T08:41:38.803Z,1.17
2023-01-18T08:47:10.578Z,1.05
2023-01-18T08:52:42.465Z,0.93
2023-01-18T08:58:13.993Z,0.98
2023-01-18T09:03:45.950Z,0.95
2023-01-18T09:09:17.686Z,0.85
2023-01-18T09:14:49.159Z,0.87
2023-01-18T09:20:21.057Z,0.97
2023-01-18T09:25:52.622Z,0.77
2023-01-18T09:31:28.821Z,0.8
2023-01-18T09:37:00.539Z,1.07
2023-01-18T09:42:32.435Z,0.87
2023-01-18T09:48:03.959Z,0.75
2023-01-18T09:53:36.291Z,1.03
2023-01-18T09:59:07.512Z,1.01
2023-01-18T10:04:39.261Z,1.01
2023-01-18T10:10:10.837Z,0.98
2023-01-18T10:15:43.013Z,1.01
2023-01-18T10:21:14.432Z,1.23
2023-01-18T10:26:46.140Z,1.17
2023-01-18T10:32:22.164Z,1.15
2023-01-18T10:37:54.302Z,1.07
2023-01-18T10:43:25.872Z,1.07
2023-01-18T10:48:57.314Z,1.18
2023-01-18T10:54:29.121Z,1.19
2023-01-18T11:00:00.871Z,1.31
2023-01-18T11:05:32.552Z,1.32
2023-01-18T11:11:04.227Z,1.2
2023-01-18T11:16:36.028Z,1.31
2023-01-18T11:22:07.776Z,1.54
2023-01-18T11:27:39.767Z,1.35
2023-01-18T11:33:15.583Z,1.48
2023-01-18T11:38:47.295Z,1.33
2023-01-18T11:44:19.007Z,1.26
2023-01-18T11:49:50.966Z,1.32
2023-01-18T11:55:22.443Z,1.52
2023-01-18T12:00:54.468Z,1.52
2023-01-18T12:06:25.904Z,1.24
2023-01-18T12:12:06.461Z,1.49
2023-01-18T12:17:29.417Z,1.39
2023-01-18T12:23:01.128Z,1.53
2023-01-18T12:28:32.764Z,1.56
2023-01-18T12:34:08.953Z,1.54
2023-01-18T12:39:40.838Z,1.55
2023-01-18T12:45:12.457Z,1.74
2023-01-18T12:50:44.397Z,1.93
2023-01-18T12:56:15.955Z,2.07
2023-01-18T13:01:47.680Z,2.09
2023-01-18T13:07:19.250Z,2.03
2023-01-18T13:12:51.057Z,2.09
2023-01-18T13:18:22.760Z,1.7
2023-01-18T13:23:54.727Z,1.99
2023-01-18T13:29:26.684Z,1.99
2023-01-18T13:35:19.409Z,1.94
2023-01-18T13:40:36.414Z,1.82
2023-01-18T13:46:08.210Z,2.02
2023-01-18T13:51:39.619Z,1.99
2023-01-18T13:57:11.307Z,2.12
2023-01-18T14:02:43.043Z,2.24
2023-01-18T14:08:14.933Z,1.97
2023-01-18T14:13:46.541Z,1.95
2023-01-18T14:19:18.252Z,2.05
2023-01-18T14:24:50.009Z,2.24
2023-01-18T14:30:21.853Z,2.07
2023-01-18T14:35:58.037Z,2.13
2023-01-18T14:41:29.586Z,2.31
2023-01-18T14:47:08.164Z,2.15
2023-01-18T14:52:33.141Z,1.96
2023-01-18T14:58:04.864Z,1.91
2023-01-18T15:03:36.440Z,1.99
2023-01-18T15:09:08.150Z,1.98
2023-01-18T15:14:39.813Z,1.97
2023-01-18T15:20:11.572Z,2.33
2023-01-18T15:25:43.567Z,2.33
2023-01-18T15:31:15.219Z,2.54
2023-01-18T15:36:51.187Z,2.25
2023-01-18T15:42:22.897Z,2.5
2023-01-18T15:47:54.865Z,2.36
2023-01-18T15:53:27.255Z,2.47
2023-01-18T15:58:58.501Z,2.41
2023-01-18T16:04:30.233Z,2.46
2023-01-18T16:10:01.553Z,2.49
2023-01-18T16:15:33.572Z,2.31
2023-01-18T16:21:05.249Z,2.41
2023-01-18T16:26:37.033Z,2.74
2023-01-18T16:32:08.708Z,2.62
2023-01-18T16:37:44.812Z,2.61
2023-01-18T16:43:16.762Z,2.59
2023-01-18T16:48:48.293Z,2.36
2023-01-18T16:54:20.115Z,2.28
2023-01-18T16:59:51.545Z,2.24
2023-01-18T17:05:23.701Z,2.2
2023-01-18T17:10:55.197Z,2.05
2023-01-18T17:16:27.007Z,2.16
2023-01-18T17:21:59.120Z,2.12
2023-01-18T17:27:30.140Z,1.98
2023-01-18T17:33:02.076Z,2.0
2023-01-18T17:38:38.001Z,2.04
2023-01-18T17:44:09.704Z,2.25
2023-01-18T17:49:41.648Z,2.27
2023-01-18T17:55:13.190Z,2.29
2023-01-18T18:00:44.919Z,2.29
2023-01-18T18:06:25.980Z,2.21
2023-01-18T18:11:48.520Z,2.2
2023-01-18T18:17:20.105Z,2.15
2023-01-18T18:22:52.004Z,1.97
2023-01-18T18:28:23.819Z,2.02
2023-01-18T18:33:55.333Z,2.11
2023-01-18T18:39:33.800Z,1.9
2023-01-18T18:45:05.204Z,1.82
2023-01-18T18:50:36.936Z,1.87
2023-01-18T18:56:09.380Z,1.78
2023-01-18T19:01:40.643Z,1.87
2023-01-18T19:07:12.084Z,1.71
2023-01-18T19:12:44.135Z,1.74
2023-01-18T19:18:15.792Z,1.91
2023-01-18T19:23:47.260Z,1.76
2023-01-18T19:29:19.140Z,2.0
2023-01-18T19:34:50.665Z,1.88
2023-01-18T19:40:26.779Z,1.74
2023-01-18T19:45:58.792Z,1.6
2023-01-18T19:51:30.659Z,1.52
2023-01-18T19:57:02.426Z,1.3
2023-01-18T20:02:33.936Z,1.3
2023-01-18T20:08:05.409Z,1.42
2023-01-18T20:13:37.516Z,1.34
2023-01-18T20:19:08.953Z,1.24
2023-01-18T20:24:40.747Z,1.26
2023-01-18T20:30:12.305Z,1.16
2023-01-18T20:35:44.301Z,1.16
2023-01-18T20:41:20.365Z,1.13
2023-01-18T20:46:52.581Z,1.21
2023-01-18T20:52:23.703Z,1.09
2023-01-18T20:57:55.367Z,0.92
2023-01-18T21:03:27.046Z,1.01
2023-01-18T21:08:58.932Z,0.86
2023-01-18T21:14:30.982Z,0.74
2023-01-18T21:20:02.788Z,0.74
2023-01-18T21:25:34.302Z,0.79
2023-01-18T21:31:06.536Z,0.92
2023-01-18T21:36:38.010Z,0.96
2023-01-18T21:42:15.993Z,0.88
2023-01-18T21:47:47.721Z,0.95
2023-01-18T21:53:19.576Z,1.17
2023-01-18T21:58:51.405Z,1.09
2023-01-18T22:04:22.996Z,1.01
2023-01-18T22:10:03.321Z,0.96
2023-01-18T22:15:26.709Z,0.86
2023-01-18T22:20:58.121Z,0.87
2023-01-18T22:26:30.549Z,0.77
2023-01-18T22:32:01.542Z,0.67
2023-01-18T22:37:33.408Z,0.77
2023-01-18T22:43:09.547Z,0.92
2023-01-18T22:48:42.084Z,0.87
2023-01-18T22:54:12.883Z,0.73
2023-01-18T22:59:44.935Z,0.76
2023-01-18T23:05:16.339Z,0.86
2023-01-18T23:10:48.310Z,0.83
2023-01-18T23:16:19.976Z,0.81
2023-01-18T23:21:51.502Z,0.82
2023-01-18T23:27:23.702Z,0.92
2023-01-18T23:32:54.957Z,0.96
2023-01-18T23:38:26.658Z,0.85
2023-01-18T23:44:04.931Z,0.79
2023-01-18T23:49:36.578Z,0.63
2023-01-18T23:55:08.348Z,0.58
